sensor_id;sensor_type;location;lat;lon;timestamp;pressure;altitude;pressure_sealevel;temperature;humidity
48872;BME280;36154;51.674;7.824;2023-02-11T00:01:37;102507.72;;;19.77;45.01
48872;BME280;36154;51.674;7.824;2023-02-11T00:04:04;102506.88;;;19.83;44.89
48872;BME280;36154;51.674;7.824;2023-02-11T00:06:31;102505.19;;;19.83;44.73
48872;BME280;36154;51.674;7.824;2023-02-11T00:08:57;102500.84;;;19.82;44.81
48872;BME280;36154;51.674;7.824;2023-02-11T00:11:24;102507.78;;;19.83;44.85
48872;BME280;36154;51.674;7.824;2023-02-11T00:13:50;102500.00;;;19.83;44.85
48872;BME280;36154;51.674;7.824;2023-02-11T00:16:18;102483.59;;;19.83;44.67
48872;BME280;36154;51.674;7.824;2023-02-11T00:18:44;102487.91;;;19.82;44.84
48872;BME280;36154;51.674;7.824;2023-02-11T00:21:14;102492.25;;;19.82;44.69
48872;BME280;36154;51.674;7.824;2023-02-11T00:23:40;102497.41;;;19.80;44.56
48872;BME280;36154;51.674;7.824;2023-02-11T00:26:33;102506.03;;;19.82;44.61
48872;BME280;36154;51.674;7.824;2023-02-11T00:28:59;102501.69;;;19.81;44.72
48872;BME280;36154;51.674;7.824;2023-02-11T00:31:25;102504.28;;;19.81;44.69
48872;BME280;36154;51.674;7.824;2023-02-11T00:33:51;102506.03;;;19.81;44.68
48872;BME280;36154;51.674;7.824;2023-02-11T00:36:20;102499.13;;;19.81;44.68
48872;BME280;36154;51.674;7.824;2023-02-11T00:38:46;102504.28;;;19.81;44.70
48872;BME280;36154;51.674;7.824;2023-02-11T00:41:13;102489.63;;;19.79;44.78
48872;BME280;36154;51.674;7.824;2023-02-11T00:43:39;102485.31;;;19.81;44.76
48872;BME280;36154;51.674;7.824;2023-02-11T00:46:05;102481.00;;;19.81;44.59
48872;BME280;36154;51.674;7.824;2023-02-11T00:48:31;102484.47;;;19.80;44.71
48872;BME280;36154;51.674;7.824;2023-02-11T00:50:57;102480.13;;;19.78;44.70
48872;BME280;36154;51.674;7.824;2023-02-11T00:53:22;102484.47;;;19.80;44.55
48872;BME280;36154;51.674;7.824;2023-02-11T00:55:47;102481.00;;;19.80;44.63
48872;BME280;36154;51.674;7.824;2023-02-11T00:58:13;102485.31;;;19.79;44.64
48872;BME280;36154;51.674;7.824;2023-02-11T01:00:38;102480.16;;;19.79;44.64
48872;BME280;36154;51.674;7.824;2023-02-11T01:03:04;102475.84;;;19.78;44.57
48872;BME280;36154;51.674;7.824;2023-02-11T01:05:30;102480.16;;;19.79;44.73
48872;BME280;36154;51.674;7.824;2023-02-11T01:07:55;102479.28;;;19.79;44.43
48872;BME280;36154;51.674;7.824;2023-02-11T01:10:20;102476.69;;;19.79;44.60
48872;BME280;36154;51.674;7.824;2023-02-11T01:12:46;102480.13;;;19.78;44.57
48872;BME280;36154;51.674;7.824;2023-02-11T01:15:14;102478.44;;;19.78;44.67
48872;BME280;36154;51.674;7.824;2023-02-11T01:17:40;102487.91;;;19.78;44.54
48872;BME280;36154;51.674;7.824;2023-02-11T01:20:10;102479.28;;;19.77;44.42
48872;BME280;36154;51.674;7.824;2023-02-11T01:22:35;102491.34;;;19.77;44.61
48872;BME280;36154;51.674;7.824;2023-02-11T01:25:04;102485.31;;;19.76;44.50
48872;BME280;36154;51.674;7.824;2023-02-11T01:27:30;102495.66;;;19.76;44.50
48872;BME280;36154;51.674;7.824;2023-02-11T01:29:55;102492.19;;;19.74;44.45
48872;BME280;36154;51.674;7.824;2023-02-11T01:32:20;102501.69;;;19.75;44.51
48872;BME280;36154;51.674;7.824;2023-02-11T01:34:46;102509.44;;;19.75;44.34
48872;BME280;36154;51.674;7.824;2023-02-11T01:37:12;102506.88;;;19.75;44.19
48872;BME280;36154;51.674;7.824;2023-02-11T01:39:37;102517.22;;;19.75;44.64
48872;BME280;36154;51.674;7.824;2023-02-11T01:42:02;102522.38;;;19.75;44.49
48872;BME280;36154;51.674;7.824;2023-02-11T01:44:35;102510.28;;;19.74;44.42
48872;BME280;36154;51.674;7.824;2023-02-11T01:47:01;102512.88;;;19.74;44.33
48872;BME280;36154;51.674;7.824;2023-02-11T01:49:56;102501.69;;;19.73;44.32
48872;BME280;36154;51.674;7.824;2023-02-11T01:52:28;102481.84;;;19.74;44.34
48872;BME280;36154;51.674;7.824;2023-02-11T01:55:03;102465.47;;;19.73;44.53
48872;BME280;36154;51.674;7.824;2023-02-11T01:57:52;102456.81;;;19.73;44.51
48872;BME280;36154;51.674;7.824;2023-02-11T02:00:23;102462.88;;;19.72;44.39
48872;BME280;36154;51.674;7.824;2023-02-11T02:02:53;102449.09;;;19.68;44.36
48872;BME280;36154;51.674;7.824;2023-02-11T02:05:39;102447.38;;;19.72;44.50
48872;BME280;36154;51.674;7.824;2023-02-11T02:08:28;102437.03;;;19.72;44.42
48872;BME280;36154;51.674;7.824;2023-02-11T02:10:56;102435.28;;;19.71;44.51
48872;BME280;36154;51.674;7.824;2023-02-11T02:13:26;102437.00;;;19.69;44.52
48872;BME280;36154;51.674;7.824;2023-02-11T02:15:54;102443.03;;;19.71;44.40
48872;BME280;36154;51.674;7.824;2023-02-11T02:21:38;102461.13;;;19.71;44.22
48872;BME280;36154;51.674;7.824;2023-02-11T02:27:04;102456.84;;;19.70;44.30
48872;BME280;36154;51.674;7.824;2023-02-11T02:37:52;102456.84;;;19.68;44.16
48872;BME280;36154;51.674;7.824;2023-02-11T02:40:25;102450.78;;;19.68;44.24
48872;BME280;36154;51.674;7.824;2023-02-11T02:42:51;102443.91;;;19.67;44.14
48872;BME280;36154;51.674;7.824;2023-02-11T02:45:17;102445.59;;;19.68;44.41
48872;BME280;36154;51.674;7.824;2023-02-11T02:47:43;102446.50;;;19.68;44.08
48872;BME280;36154;51.674;7.824;2023-02-11T02:50:09;102442.19;;;19.69;44.14
48872;BME280;36154;51.674;7.824;2023-02-11T02:52:44;102439.59;;;19.69;44.32
48872;BME280;36154;51.674;7.824;2023-02-11T02:55:13;102443.91;;;19.70;44.29
48872;BME280;36154;51.674;7.824;2023-02-11T03:08:17;102465.44;;;19.69;44.16
48872;BME280;36154;51.674;7.824;2023-02-11T03:10:46;102452.53;;;19.69;44.31
48872;BME280;36154;51.674;7.824;2023-02-11T03:13:14;102455.09;;;19.67;44.31
48872;BME280;36154;51.674;7.824;2023-02-11T03:15:43;102455.94;;;19.68;44.13
48872;BME280;36154;51.674;7.824;2023-02-11T03:18:12;102443.03;;;19.68;44.21
48872;BME280;36154;51.674;7.824;2023-02-11T03:20:42;102445.59;;;19.68;44.06
48872;BME280;36154;51.674;7.824;2023-02-11T03:23:15;102439.56;;;19.67;44.06
48872;BME280;36154;51.674;7.824;2023-02-11T03:25:52;102447.34;;;19.66;44.10
48872;BME280;36154;51.674;7.824;2023-02-11T03:28:48;102452.50;;;19.67;44.04
48872;BME280;36154;51.674;7.824;2023-02-11T03:31:29;102443.03;;;19.66;44.09
48872;BME280;36154;51.674;7.824;2023-02-11T03:36:51;102435.28;;;19.65;44.12
48872;BME280;36154;51.674;7.824;2023-02-11T03:39:24;102436.13;;;19.65;44.04
48872;BME280;36154;51.674;7.824;2023-02-11T03:41:54;102429.22;;;19.66;44.12
48872;BME280;36154;51.674;7.824;2023-02-11T03:44:21;102426.66;;;19.66;44.32
48872;BME280;36154;51.674;7.824;2023-02-11T03:46:49;102422.34;;;19.65;44.21
48872;BME280;36154;51.674;7.824;2023-02-11T03:49:18;102426.66;;;19.66;44.12
48872;BME280;36154;51.674;7.824;2023-02-11T03:51:45;102421.47;;;19.66;43.98
48872;BME280;36154;51.674;7.824;2023-02-11T03:54:14;102429.22;;;19.66;43.85
48872;BME280;36154;51.674;7.824;2023-02-11T03:56:51;102426.66;;;19.66;44.24
48872;BME280;36154;51.674;7.824;2023-02-11T03:59:17;102427.53;;;19.65;44.13
48872;BME280;36154;51.674;7.824;2023-02-11T04:01:43;102426.66;;;19.66;44.17
48872;BME280;36154;51.674;7.824;2023-02-11T04:04:08;102414.59;;;19.65;44.06
48872;BME280;36154;51.674;7.824;2023-02-11T04:06:33;102414.59;;;19.65;44.04
48872;BME280;36154;51.674;7.824;2023-02-11T04:08:59;102408.53;;;19.66;43.90
48872;BME280;36154;51.674;7.824;2023-02-11T04:11:24;102408.53;;;19.67;43.94
48872;BME280;36154;51.674;7.824;2023-02-11T04:13:49;102418.91;;;19.70;44.07
48872;BME280;36154;51.674;7.824;2023-02-11T04:16:15;102417.19;;;19.72;44.09
48872;BME280;36154;51.674;7.824;2023-02-11T04:18:40;102424.09;;;19.77;44.16
48872;BME280;36154;51.674;7.824;2023-02-11T04:21:05;102436.19;;;19.81;44.16
48872;BME280;36154;51.674;7.824;2023-02-11T04:23:31;102445.69;;;19.83;44.01
48872;BME280;36154;51.674;7.824;2023-02-11T04:25:56;102444.81;;;19.86;44.04
48872;BME280;36154;51.674;7.824;2023-02-11T04:28:21;102437.06;;;19.90;43.97
48872;BME280;36154;51.674;7.824;2023-02-11T04:30:48;102437.94;;;19.94;44.01
48872;BME280;36154;51.674;7.824;2023-02-11T04:33:14;102443.13;;;19.97;43.94
48872;BME280;36154;51.674;7.824;2023-02-11T04:35:39;102446.59;;;20.01;44.05
48872;BME280;36154;51.674;7.824;2023-02-11T04:38:05;102450.91;;;20.02;43.95
48872;BME280;36154;51.674;7.824;2023-02-11T04:40:30;102436.25;;;20.05;43.84
48872;BME280;36154;51.674;7.824;2023-02-11T04:42:55;102440.56;;;20.08;44.00
48872;BME280;36154;51.674;7.824;2023-02-11T04:45:20;102440.56;;;20.11;43.79
48872;BME280;36154;51.674;7.824;2023-02-11T04:47:46;102442.31;;;20.13;44.01
48872;BME280;36154;51.674;7.824;2023-02-11T04:50:11;102441.44;;;20.16;43.94
48872;BME280;36154;51.674;7.824;2023-02-11T04:52:36;102430.22;;;20.17;43.77
48872;BME280;36154;51.674;7.824;2023-02-11T04:55:01;102435.41;;;20.20;43.92
48872;BME280;36154;51.674;7.824;2023-02-11T04:57:27;102437.13;;;20.21;43.72
48872;BME280;36154;51.674;7.824;2023-02-11T04:59:54;102433.69;;;20.22;43.67
48872;BME280;36154;51.674;7.824;2023-02-11T05:02:20;102440.59;;;20.23;43.92
48872;BME280;36154;51.674;7.824;2023-02-11T05:04:45;102438.00;;;20.25;43.73
48872;BME280;36154;51.674;7.824;2023-02-11T05:07:10;102437.13;;;20.24;43.49
48872;BME280;36154;51.674;7.824;2023-02-11T05:09:35;102441.47;;;20.25;43.62
48872;BME280;36154;51.674;7.824;2023-02-11T05:12:01;102444.91;;;20.26;43.69
48872;BME280;36154;51.674;7.824;2023-02-11T05:14:26;102433.69;;;20.25;43.55
48872;BME280;36154;51.674;7.824;2023-02-11T05:16:51;102443.16;;;20.25;43.49
48872;BME280;36154;51.674;7.824;2023-02-11T05:19:17;102447.50;;;20.24;43.74
48872;BME280;36154;51.674;7.824;2023-02-11T05:21:42;102452.66;;;20.24;43.39
48872;BME280;36154;51.674;7.824;2023-02-11T05:24:07;102457.84;;;20.24;43.36
48872;BME280;36154;51.674;7.824;2023-02-11T05:26:32;102458.72;;;20.23;43.51
48872;BME280;36154;51.674;7.824;2023-02-11T05:28:58;102456.13;;;20.22;43.42
48872;BME280;36154;51.674;7.824;2023-02-11T05:31:23;102450.06;;;20.21;43.35
48872;BME280;36154;51.674;7.824;2023-02-11T05:33:48;102443.19;;;20.20;43.53
48872;BME280;36154;51.674;7.824;2023-02-11T05:36:14;102444.88;;;20.20;43.45
48872;BME280;36154;51.674;7.824;2023-02-11T05:38:40;102431.94;;;20.18;43.63
48872;BME280;36154;51.674;7.824;2023-02-11T05:41:07;102427.66;;;20.17;43.99
48872;BME280;36154;51.674;7.824;2023-02-11T05:43:33;102428.50;;;20.16;43.63
48872;BME280;36154;51.674;7.824;2023-02-11T05:46:04;102425.06;;;20.16;43.60
48872;BME280;36154;51.674;7.824;2023-02-11T05:48:30;102437.13;;;20.15;43.83
48872;BME280;36154;51.674;7.824;2023-02-11T05:50:55;102427.63;;;20.14;43.73
48872;BME280;36154;51.674;7.824;2023-02-11T05:53:21;102430.22;;;20.14;43.72
48872;BME280;36154;51.674;7.824;2023-02-11T05:55:46;102425.91;;;20.13;43.79
48872;BME280;36154;51.674;7.824;2023-02-11T05:58:11;102428.47;;;20.11;43.66
48872;BME280;36154;51.674;7.824;2023-02-11T06:00:38;102433.69;;;20.10;43.75
48872;BME280;36154;51.674;7.824;2023-02-11T06:03:03;102432.78;;;20.09;43.76
48872;BME280;36154;51.674;7.824;2023-02-11T06:05:29;102431.94;;;20.09;43.60
48872;BME280;36154;51.674;7.824;2023-02-11T06:07:54;102431.06;;;20.05;43.78
48872;BME280;36154;51.674;7.824;2023-02-11T06:10:20;102425.91;;;20.07;43.75
48872;BME280;36154;51.674;7.824;2023-02-11T06:12:45;102434.53;;;20.06;43.81
48872;BME280;36154;51.674;7.824;2023-02-11T06:15:10;102427.63;;;20.05;43.84
48872;BME280;36154;51.674;7.824;2023-02-11T06:17:36;102425.06;;;20.05;43.74
48872;BME280;36154;51.674;7.824;2023-02-11T06:20:03;102428.47;;;20.04;43.62
48872;BME280;36154;51.674;7.824;2023-02-11T06:22:29;102426.75;;;20.03;43.91
48872;BME280;36154;51.674;7.824;2023-02-11T06:24:54;102428.47;;;20.01;43.70
48872;BME280;36154;51.674;7.824;2023-02-11T06:27:20;102425.03;;;20.02;43.70
48872;BME280;36154;51.674;7.824;2023-02-11T06:29:45;102431.06;;;20.02;43.78
48872;BME280;36154;51.674;7.824;2023-02-11T06:32:11;102429.31;;;20.01;43.58
48872;BME280;36154;51.674;7.824;2023-02-11T06:34:37;102426.72;;;20.00;43.79
48872;BME280;36154;51.674;7.824;2023-02-11T06:37:03;102429.31;;;20.00;43.64
48872;BME280;36154;51.674;7.824;2023-02-11T06:39:28;102437.09;;;20.00;43.64
48872;BME280;36154;51.674;7.824;2023-02-11T06:41:54;102429.34;;;19.98;43.74
48872;BME280;36154;51.674;7.824;2023-02-11T06:44:19;102426.75;;;19.97;43.83
48872;BME280;36154;51.674;7.824;2023-02-11T06:46:44;102433.63;;;19.98;43.78
48872;BME280;36154;51.674;7.824;2023-02-11T06:49:10;102427.59;;;19.97;43.77
48872;BME280;36154;51.674;7.824;2023-02-11T06:51:35;102430.19;;;19.96;43.72
48872;BME280;36154;51.674;7.824;2023-02-11T06:54:01;102423.28;;;19.94;43.86
48872;BME280;36154;51.674;7.824;2023-02-11T06:56:26;102431.91;;;19.95;43.74
48872;BME280;36154;51.674;7.824;2023-02-11T06:58:55;102426.75;;;19.93;43.70
48872;BME280;36154;51.674;7.824;2023-02-11T07:01:22;102431.03;;;19.93;43.63
48872;BME280;36154;51.674;7.824;2023-02-11T07:03:48;102431.03;;;19.93;43.80
48872;BME280;36154;51.674;7.824;2023-02-11T07:06:17;102430.19;;;19.92;43.71
48872;BME280;36154;51.674;7.824;2023-02-11T07:08:43;102435.34;;;19.92;43.65
48872;BME280;36154;51.674;7.824;2023-02-11T07:11:22;102435.34;;;19.92;43.54
48872;BME280;36154;51.674;7.824;2023-02-11T07:13:52;102440.53;;;19.96;43.81
48872;BME280;36154;51.674;7.824;2023-02-11T07:16:18;102444.88;;;19.98;43.96
48872;BME280;36154;51.674;7.824;2023-02-11T07:18:44;102448.31;;;20.00;43.87
48872;BME280;36154;51.674;7.824;2023-02-11T07:21:12;102445.75;;;20.05;43.94
48872;BME280;36154;51.674;7.824;2023-02-11T07:23:38;102439.69;;;20.07;43.76
48872;BME280;36154;51.674;7.824;2023-02-11T07:26:06;102449.22;;;20.10;43.75
48872;BME280;36154;51.674;7.824;2023-02-11T07:28:34;102452.66;;;20.12;43.89
48872;BME280;36154;51.674;7.824;2023-02-11T07:33:33;102461.28;;;20.14;43.84
48872;BME280;36154;51.674;7.824;2023-02-11T07:35:59;102457.84;;;20.15;43.92
48872;BME280;36154;51.674;7.824;2023-02-11T07:38:25;102473.38;;;20.21;43.63
48872;BME280;36154;51.674;7.824;2023-02-11T07:40:50;102472.53;;;20.24;43.65
48872;BME280;36154;51.674;7.824;2023-02-11T07:43:16;102470.78;;;20.26;43.62
48872;BME280;36154;51.674;7.824;2023-02-11T07:45:41;102469.06;;;20.26;43.79
48872;BME280;36154;51.674;7.824;2023-02-11T07:48:06;102465.63;;;20.29;43.76
48872;BME280;36154;51.674;7.824;2023-02-11T07:50:32;102469.06;;;20.29;43.65
48872;BME280;36154;51.674;7.824;2023-02-11T07:52:57;102476.84;;;20.31;43.69
48872;BME280;36154;51.674;7.824;2023-02-11T07:55:22;102481.16;;;20.32;43.68
48872;BME280;36154;51.674;7.824;2023-02-11T07:57:47;102477.69;;;20.31;43.60
48872;BME280;36154;51.674;7.824;2023-02-11T08:00:13;102480.28;;;20.31;43.60
48872;BME280;36154;51.674;7.824;2023-02-11T08:02:38;102477.69;;;20.31;43.57
48872;BME280;36154;51.674;7.824;2023-02-11T08:05:04;102484.59;;;20.33;43.44
48872;BME280;36154;51.674;7.824;2023-02-11T08:07:30;102486.34;;;20.32;43.33
48872;BME280;36154;51.674;7.824;2023-02-11T08:09:55;102485.47;;;20.31;43.34
48872;BME280;36154;51.674;7.824;2023-02-11T08:12:20;102485.47;;;20.31;43.33
48872;BME280;36154;51.674;7.824;2023-02-11T08:14:46;102488.94;;;20.30;43.36
48872;BME280;36154;51.674;7.824;2023-02-11T08:17:11;102494.97;;;20.33;43.31
48872;BME280;36154;51.674;7.824;2023-02-11T08:19:37;102494.97;;;20.33;43.46
48872;BME280;36154;51.674;7.824;2023-02-11T08:22:03;102506.16;;;20.31;43.26
48872;BME280;36154;51.674;7.824;2023-02-11T08:24:28;102507.03;;;20.30;43.38
48872;BME280;36154;51.674;7.824;2023-02-11T08:26:53;102503.59;;;20.28;43.46
48872;BME280;36154;51.674;7.824;2023-02-11T08:29:19;102509.63;;;20.30;43.42
48872;BME280;36154;51.674;7.824;2023-02-11T08:31:46;102504.47;;;20.30;43.47
48872;BME280;36154;51.674;7.824;2023-02-11T08:34:12;102503.59;;;20.30;43.55
48872;BME280;36154;51.674;7.824;2023-02-11T08:36:40;102508.78;;;20.30;43.42
48872;BME280;36154;51.674;7.824;2023-02-11T08:39:20;102513.06;;;20.29;43.40
48872;BME280;36154;51.674;7.824;2023-02-11T08:41:48;102513.06;;;20.29;43.58
48872;BME280;36154;51.674;7.824;2023-02-11T08:44:14;102527.75;;;20.29;43.76
48872;BME280;36154;51.674;7.824;2023-02-11T08:46:39;102521.72;;;20.28;43.77
48872;BME280;36154;51.674;7.824;2023-02-11T08:49:04;102524.31;;;20.28;43.79
48872;BME280;36154;51.674;7.824;2023-02-11T08:51:31;102507.88;;;20.28;44.02
48872;BME280;36154;51.674;7.824;2023-02-11T08:53:57;102515.66;;;20.28;44.15
48872;BME280;36154;51.674;7.824;2023-02-11T08:56:23;102525.16;;;20.27;44.14
48872;BME280;36154;51.674;7.824;2023-02-11T08:58:49;102513.09;;;20.23;43.97
48872;BME280;36154;51.674;7.824;2023-02-11T09:01:18;102530.34;;;20.27;44.05
48872;BME280;36154;51.674;7.824;2023-02-11T09:03:44;102529.47;;;20.27;44.12
48872;BME280;36154;51.674;7.824;2023-02-11T09:06:10;102530.34;;;20.27;44.06
48872;BME280;36154;51.674;7.824;2023-02-11T09:08:37;102526.88;;;20.27;44.14
48872;BME280;36154;51.674;7.824;2023-02-11T09:11:03;102529.47;;;20.27;43.96
48872;BME280;36154;51.674;7.824;2023-02-11T09:13:30;102532.06;;;20.25;44.10
48872;BME280;36154;51.674;7.824;2023-02-11T09:15:57;102532.06;;;20.25;44.19
48872;BME280;36154;51.674;7.824;2023-02-11T09:18:22;102525.16;;;20.24;44.05
48872;BME280;36154;51.674;7.824;2023-02-11T09:20:47;102536.34;;;20.26;44.30
48872;BME280;36154;51.674;7.824;2023-02-11T09:23:13;102517.38;;;20.21;44.04
48872;BME280;36154;51.674;7.824;2023-02-11T09:25:39;102525.16;;;20.24;44.10
48872;BME280;36154;51.674;7.824;2023-02-11T09:28:05;102523.41;;;20.25;44.24
48872;BME280;36154;51.674;7.824;2023-02-11T09:30:31;102526.00;;;20.25;44.17
48872;BME280;36154;51.674;7.824;2023-02-11T09:32:56;102532.91;;;20.24;44.29
48872;BME280;36154;51.674;7.824;2023-02-11T09:35:21;102535.50;;;20.24;44.17
48872;BME280;36154;51.674;7.824;2023-02-11T09:37:47;102536.34;;;20.25;44.19
48872;BME280;36154;51.674;7.824;2023-02-11T09:40:13;102535.47;;;20.21;44.29
48872;BME280;36154;51.674;7.824;2023-02-11T09:42:46;102554.50;;;20.23;44.28
48872;BME280;36154;51.674;7.824;2023-02-11T09:45:33;102552.75;;;20.22;44.48
48872;BME280;36154;51.674;7.824;2023-02-11T09:48:16;102552.75;;;20.22;44.38
48872;BME280;36154;51.674;7.824;2023-02-11T09:50:44;102544.13;;;20.22;44.39
48872;BME280;36154;51.674;7.824;2023-02-11T09:53:35;102551.91;;;20.23;44.35
48872;BME280;36154;51.674;7.824;2023-02-11T09:56:09;102557.06;;;20.25;44.31
48872;BME280;36154;51.674;7.824;2023-02-11T09:58:38;102560.53;;;20.24;44.42
48872;BME280;36154;51.674;7.824;2023-02-11T10:01:15;102561.38;;;20.21;44.43
48872;BME280;36154;51.674;7.824;2023-02-11T10:09:30;102570.84;;;20.18;44.43
48872;BME280;36154;51.674;7.824;2023-02-11T10:12:10;102582.06;;;20.18;44.44
48872;BME280;36154;51.674;7.824;2023-02-11T10:20:24;102575.19;;;20.20;44.57
48872;BME280;36154;51.674;7.824;2023-02-11T10:22:57;102580.38;;;20.20;44.78
48872;BME280;36154;51.674;7.824;2023-02-11T10:25:26;102580.38;;;20.22;44.92
48872;BME280;36154;51.674;7.824;2023-02-11T10:27:54;102585.53;;;20.20;45.05
48872;BME280;36154;51.674;7.824;2023-02-11T10:30:30;102588.97;;;20.19;45.57
48872;BME280;36154;51.674;7.824;2023-02-11T10:33:14;102590.72;;;20.20;46.02
48872;BME280;36154;51.674;7.824;2023-02-11T10:35:44;102597.59;;;20.18;46.13
48872;BME280;36154;51.674;7.824;2023-02-11T10:38:10;102592.41;;;20.18;46.58
48872;BME280;36154;51.674;7.824;2023-02-11T10:40:36;102591.53;;;20.16;46.98
48872;BME280;36154;51.674;7.824;2023-02-11T10:43:09;102599.31;;;20.16;47.71
48872;BME280;36154;51.674;7.824;2023-02-11T10:45:38;102586.34;;;20.15;47.60
48872;BME280;36154;51.674;7.824;2023-02-11T10:53:50;102593.25;;;20.11;46.50
48872;BME280;36154;51.674;7.824;2023-02-11T10:56:50;102588.97;;;20.10;46.48
48872;BME280;36154;51.674;7.824;2023-02-11T10:59:25;102599.28;;;20.08;46.41
48872;BME280;36154;51.674;7.824;2023-02-11T11:01:55;102602.75;;;20.09;46.19
48872;BME280;36154;51.674;7.824;2023-02-11T11:07:19;102611.34;;;20.08;46.16
48872;BME280;36154;51.674;7.824;2023-02-11T11:09:53;102616.53;;;20.08;46.26
48872;BME280;36154;51.674;7.824;2023-02-11T11:17:35;102591.50;;;20.04;46.24
48872;BME280;36154;51.674;7.824;2023-02-11T11:20:29;102594.94;;;20.03;45.96
48872;BME280;36154;51.674;7.824;2023-02-11T11:25:41;102584.56;;;20.01;45.83
48872;BME280;36154;51.674;7.824;2023-02-11T11:28:19;102585.44;;;19.99;45.96
48872;BME280;36154;51.674;7.824;2023-02-11T11:30:46;102589.75;;;20.00;45.70
48872;BME280;36154;51.674;7.824;2023-02-11T11:33:24;102589.75;;;20.00;45.85
48872;BME280;36154;51.674;7.824;2023-02-11T11:36:07;102594.06;;;20.01;45.98
48872;BME280;36154;51.674;7.824;2023-02-11T11:38:36;102588.03;;;20.00;45.98
48872;BME280;36154;51.674;7.824;2023-02-11T11:41:21;102588.91;;;20.01;45.76
48872;BME280;36154;51.674;7.824;2023-02-11T11:44:20;102584.56;;;20.01;45.84
48872;BME280;36154;51.674;7.824;2023-02-11T11:46:51;102587.16;;;20.01;45.84
48872;BME280;36154;51.674;7.824;2023-02-11T11:49:24;102587.16;;;20.01;45.65
48872;BME280;36154;51.674;7.824;2023-02-11T11:54:54;102588.91;;;20.01;45.76
48872;BME280;36154;51.674;7.824;2023-02-11T11:57:25;102591.47;;;20.01;45.77
48872;BME280;36154;51.674;7.824;2023-02-11T11:59:52;102586.31;;;20.01;45.73
48872;BME280;36154;51.674;7.824;2023-02-11T12:02:43;102583.72;;;20.01;45.43
48872;BME280;36154;51.674;7.824;2023-02-11T12:05:25;102586.31;;;20.01;45.34
48872;BME280;36154;51.674;7.824;2023-02-11T12:10:39;102595.81;;;20.02;45.47
48872;BME280;36154;51.674;7.824;2023-02-11T12:21:23;102584.59;;;20.04;45.71
48872;BME280;36154;51.674;7.824;2023-02-11T12:27:03;102596.69;;;20.07;45.83
48872;BME280;36154;51.674;7.824;2023-02-11T12:35:49;102596.72;;;20.08;45.82
48872;BME280;36154;51.674;7.824;2023-02-11T12:41:15;102599.28;;;20.05;44.24
48872;BME280;36154;51.674;7.824;2023-02-11T12:43:43;102589.69;;;19.86;43.80
48872;BME280;36154;51.674;7.824;2023-02-11T12:49:08;102590.50;;;19.77;43.64
48872;BME280;36154;51.674;7.824;2023-02-11T12:51:49;102588.78;;;19.79;43.76
48872;BME280;36154;51.674;7.824;2023-02-11T12:54:27;102595.72;;;19.83;44.17
48872;BME280;36154;51.674;7.824;2023-02-11T12:57:00;102589.69;;;19.87;44.30
48872;BME280;36154;51.674;7.824;2023-02-11T13:02:13;102583.69;;;19.98;44.44
48872;BME280;36154;51.674;7.824;2023-02-11T13:04:45;102578.53;;;20.01;44.51
48872;BME280;36154;51.674;7.824;2023-02-11T13:07:28;102575.13;;;20.05;44.42
48872;BME280;36154;51.674;7.824;2023-02-11T13:10:02;102570.84;;;20.10;44.50
48872;BME280;36154;51.674;7.824;2023-02-11T13:12:32;102573.41;;;20.13;44.41
48872;BME280;36154;51.674;7.824;2023-02-11T13:15:18;102582.94;;;20.16;44.66
48872;BME280;36154;51.674;7.824;2023-02-11T13:18:14;102575.19;;;20.20;44.59
48872;BME280;36154;51.674;7.824;2023-02-11T13:20:53;102575.22;;;20.23;44.54
48872;BME280;36154;51.674;7.824;2023-02-11T13:23:33;102569.16;;;20.24;44.55
48872;BME280;36154;51.674;7.824;2023-02-11T13:26:46;102566.56;;;20.27;44.31
48872;BME280;36154;51.674;7.824;2023-02-11T13:32:13;102564.00;;;20.30;44.57
48872;BME280;36154;51.674;7.824;2023-02-11T13:37:46;102562.28;;;20.33;44.34
48872;BME280;36154;51.674;7.824;2023-02-11T13:42:53;102585.56;;;20.33;44.36
48872;BME280;36154;51.674;7.824;2023-02-11T13:47:59;102589.03;;;20.33;44.40
48872;BME280;36154;51.674;7.824;2023-02-11T13:50:27;102586.44;;;20.33;44.66
48872;BME280;36154;51.674;7.824;2023-02-11T13:52:57;102592.50;;;20.34;44.69
48872;BME280;36154;51.674;7.824;2023-02-11T13:55:25;102577.81;;;20.33;44.81
48872;BME280;36154;51.674;7.824;2023-02-11T14:14:02;102582.13;;;20.30;45.00
48872;BME280;36154;51.674;7.824;2023-02-11T14:19:52;102584.69;;;20.26;45.22
48872;BME280;36154;51.674;7.824;2023-02-11T14:22:29;102589.03;;;20.28;45.20
48872;BME280;36154;51.674;7.824;2023-02-11T14:24:59;102598.50;;;20.28;45.28
48872;BME280;36154;51.674;7.824;2023-02-11T14:33:11;102589.88;;;20.29;45.89
48872;BME280;36154;51.674;7.824;2023-02-11T14:35:50;102590.72;;;20.29;45.86
48872;BME280;36154;51.674;7.824;2023-02-11T14:41:18;102597.63;;;20.27;46.25
48872;BME280;36154;51.674;7.824;2023-02-11T14:43:48;102593.31;;;20.28;46.27
48872;BME280;36154;51.674;7.824;2023-02-11T14:46:16;102588.13;;;20.28;46.59
48872;BME280;36154;51.674;7.824;2023-02-11T14:48:46;102589.88;;;20.26;46.37
48872;BME280;36154;51.674;7.824;2023-02-11T14:51:24;102582.94;;;20.20;43.69
48872;BME280;36154;51.674;7.824;2023-02-11T14:53:54;102593.22;;;20.00;42.82
48872;BME280;36154;51.674;7.824;2023-02-11T14:56:28;102596.56;;;19.81;42.34
48872;BME280;36154;51.674;7.824;2023-02-11T14:58:56;102597.31;;;19.66;41.74
48872;BME280;36154;51.674;7.824;2023-02-11T15:04:00;102604.75;;;19.21;41.04
48872;BME280;36154;51.674;7.824;2023-02-11T15:06:32;102602.03;;;19.09;41.44
48872;BME280;36154;51.674;7.824;2023-02-11T15:09:15;102603.72;;;19.05;41.67
48872;BME280;36154;51.674;7.824;2023-02-11T15:11:42;102606.31;;;19.07;42.07
48872;BME280;36154;51.674;7.824;2023-02-11T15:14:14;102606.38;;;19.11;42.61